Aviation Digital Data Service (ADDS)

Output produced by METARs form (1950 UTC 14 August 2018)
found at http://www.aviationweather.gov/adds/metars/
 
KMBO 141935Z AUTO 07004KT 10SM CLR 32/20 A3002 RMK AO2 PWINO
KMBO 141915Z AUTO 36003KT 10SM CLR 32/17 A3003 RMK AO2 PWINO
KMBO 141855Z AUTO 33003KT 10SM CLR 32/18 A3003 RMK AO2 PWINO
KMBO 141835Z AUTO 00000KT 10SM CLR 32/20 A3004 RMK AO2 PWINO
KMBO 141815Z AUTO 06003KT 10SM SCT049 31/21 A3005 RMK AO2 LTG DSNT NW PWINO
KMBO 141755Z AUTO 25005KT 10SM SCT046 30/21 A3005 RMK AO2 PWINO
KMBO 141735Z AUTO 00000KT 10SM CLR 32/21 A3006 RMK AO2 PWINO
KMBO 141715Z AUTO 30004KT 10SM CLR 31/21 A3006 RMK AO2 PWINO
KMBO 141655Z AUTO 32003KT 10SM CLR 31/21 A3006 RMK AO2 PWINO
KMBO 141635Z AUTO 28004KT 10SM CLR 31/22 A3007 RMK AO2 PWINO
KMBO 141615Z AUTO 29003KT 10SM SCT038 30/22 A3007 RMK AO2 PWINO
KMBO 141555Z AUTO 00000KT 10SM CLR 30/22 A3007 RMK AO2 PWINO
KMBO 141535Z AUTO 25005KT 10SM CLR 30/22 A3007 RMK AO2 PWINO
KMBO 141515Z AUTO 24005KT 10SM CLR 29/23 A3007 RMK AO2 PWINO
KMBO 141455Z AUTO 25003KT 10SM CLR 28/23 A3006 RMK AO2 PWINO
KMBO 141435Z AUTO 22003KT 10SM CLR 27/23 A3006 RMK AO2 PWINO
KMBO 141415Z AUTO 00000KT 10SM CLR 27/24 A3005 RMK AO2 PWINO
KMBO 141355Z AUTO 19004KT 10SM CLR 27/24 A3005 RMK AO2 PWINO
KMBO 141335Z AUTO 00000KT 10SM CLR 26/25 A3005 RMK AO2 PWINO
KMBO 141315Z AUTO 00000KT 10SM CLR 25/25 A3005 RMK AO2 PWINO
KMBO 141255Z AUTO 00000KT 10SM CLR 23/23 A3005 RMK AO2 PWINO
KMBO 141235Z AUTO 00000KT 10SM CLR 22/22 A3005 RMK AO2 PWINO
KMBO 141215Z AUTO 00000KT 10SM CLR 21/21 A3005 RMK AO2 PWINO
KMBO 141155Z AUTO 00000KT 7SM CLR 21/21 A3004 RMK AO2 PWINO
KMBO 141135Z AUTO 00000KT 7SM CLR 21/21 A3003 RMK AO2 PWINO
KMBO 141115Z AUTO 00000KT 7SM CLR 21/21 A3003 RMK AO2 PWINO
KMBO 141055Z AUTO 00000KT 7SM CLR 21/21 A3003 RMK AO2 PWINO
KMBO 141035Z AUTO 00000KT 7SM CLR 21/21 A3003 RMK AO2 PWINO
KMBO 141015Z AUTO 00000KT 7SM CLR 21/21 A3003 RMK AO2 PWINO
KMBO 140955Z AUTO 00000KT 7SM CLR 21/21 A3003 RMK AO2 PWINO
KMBO 140935Z AUTO 00000KT 7SM CLR 21/21 A3002 RMK AO2 PWINO
KMBO 140915Z AUTO 00000KT 10SM CLR 21/21 A3002 RMK AO2 PWINO
KMBO 140855Z AUTO 00000KT 7SM CLR 21/21 A3002 RMK AO2 PWINO
KMBO 140835Z AUTO 00000KT 10SM CLR 21/21 A3002 RMK AO2 PWINO
KMBO 140815Z AUTO 00000KT 10SM CLR 21/21 A3002 RMK AO2 PWINO
KMBO 140755Z AUTO 00000KT 10SM CLR 21/21 A3002 RMK AO2 PWINO
KMBO 140735Z AUTO 00000KT 10SM CLR 21/21 A3002 RMK AO2 PWINO
KMBO 140715Z AUTO 00000KT 10SM CLR 22/22 A3002 RMK AO2 PWINO
KMBO 140655Z AUTO 00000KT 10SM CLR 22/22 A3002 RMK AO2 PWINO
KMBO 140635Z AUTO 00000KT 10SM CLR 22/22 A3003 RMK AO2 PWINO
KMBO 140615Z AUTO 00000KT 10SM CLR 22/22 A3003 RMK AO2 PWINO
KMBO 140555Z AUTO 00000KT 10SM CLR 22/22 A3003 RMK AO2 PWINO
KMBO 140535Z AUTO 00000KT 10SM CLR 22/22 A3004 RMK AO2 PWINO
KMBO 140515Z AUTO 00000KT 10SM CLR 23/22 A3004 RMK AO2 PWINO
KMBO 140455Z AUTO 00000KT 10SM CLR 23/22 A3004 RMK AO2 PWINO
KMBO 140435Z AUTO 00000KT 10SM CLR 22/22 A3004 RMK AO2 PWINO
KMBO 140415Z AUTO 00000KT 10SM CLR 23/23 A3004 RMK AO2 PWINO
KMBO 140355Z AUTO 00000KT 10SM CLR 23/23 A3004 RMK AO2 PWINO
KMBO 140335Z AUTO 00000KT 10SM CLR 23/23 A3004 RMK AO2 PWINO
KMBO 140315Z AUTO 00000KT 10SM CLR 23/23 A3003 RMK AO2 PWINO
KMBO 140255Z AUTO 00000KT 10SM CLR 23/23 A3002 RMK AO2 PWINO
KMBO 140235Z AUTO 00000KT 10SM CLR 24/23 A3002 RMK AO2 PWINO
KMBO 140215Z AUTO 00000KT 10SM CLR 24/23 A3001 RMK AO2 PWINO
KMBO 140155Z AUTO 00000KT 10SM CLR 24/23 A3001 RMK AO2 PWINO
KMBO 140135Z AUTO 00000KT 10SM CLR 25/23 A3002 RMK AO2 PWINO
KMBO 140115Z AUTO 00000KT 10SM CLR 25/23 A3002 RMK AO2 PWINO
KMBO 140055Z AUTO 00000KT 10SM CLR 25/23 A3002 RMK AO2 PWINO
KMBO 140035Z AUTO 00000KT 10SM CLR 28/22 A3002 RMK AO2 PWINO
KMBO 140015Z AUTO 00000KT 10SM CLR 29/21 A3001 RMK AO2 PWINO
KMBO 132355Z AUTO 29005KT 10SM CLR 30/20 A3002 RMK AO2 PWINO
KMBO 132335Z AUTO 30004KT 10SM CLR 30/21 A3002 RMK AO2 PWINO
KMBO 132315Z AUTO 28004KT 10SM CLR 31/20 A3002 RMK AO2 PWINO
KMBO 132255Z AUTO 25005KT 10SM CLR 31/20 A3002 RMK AO2 LTG DSNT NE PWINO
KMBO 132235Z AUTO 32005KT 10SM CLR 31/20 A3002 RMK AO2 PWINO
KMBO 132215Z AUTO 30005KT 10SM CLR 31/20 A3001 RMK AO2 LTG DSNT NE PWINO
KMBO 132155Z AUTO 33003KT 10SM VCTS CLR 31/20 A3001 RMK AO2 LTG DSNT N AND NE
KMBO 132135Z AUTO 29003KT 10SM CLR 31/20 A3002 RMK AO2 PWINO
KMBO 132115Z AUTO 32004KT 10SM CLR 31/20 A3002 RMK AO2 PWINO
KMBO 132055Z AUTO 32003KT 10SM CLR 31/20 A3003 RMK AO2 LTG DSNT N AND SE PWINO
KMBO 132035Z AUTO 31006KT 10SM CLR 32/21 A3003 RMK AO2 PWINO
KMBO 132015Z AUTO 33005KT 10SM SCT045 31/20 A3004 RMK AO2 LTG DSNT SE PWINO
KMBO 131955Z AUTO 24003KT 10SM SCT045 31/21 A3004 RMK AO2 PWINO
KMBO 131935Z AUTO 29005KT 10SM CLR 31/22 A3005 RMK AO2 PWINO
KMBO 131915Z AUTO 00000KT 10SM CLR 31/21 A3006 RMK AO2 LTG DSNT SE PWINO
KMBO 131855Z AUTO 30006KT 10SM CLR 31/21 A3007 RMK AO2 LTG DSNT E PWINO
KMBO 131835Z AUTO 35006KT 10SM CLR 30/22 A3008 RMK AO2 LTG DSNT SE AND NW PWINO
KMBO 131815Z AUTO 32005KT 10SM CLR 30/22 A3009 RMK AO2 PWINO
KMBO 131755Z AUTO 32005KT 10SM CLR 29/22 A3010 RMK AO2 PWINO
KMBO 131735Z AUTO 00000KT 10SM CLR 29/22 A3010 RMK AO2 PWINO
KMBO 131715Z AUTO 34003KT 10SM CLR 29/22 A3011 RMK AO2 PWINO
KMBO 131655Z AUTO 00000KT 10SM CLR 29/22 A3011 RMK AO2 PWINO
KMBO 131635Z AUTO 30004KT 10SM CLR 28/23 A3011 RMK AO2 PWINO
KMBO 131615Z AUTO 00000KT 10SM CLR 28/22 A3011 RMK AO2 PWINO
KMBO 131555Z AUTO 24004KT 10SM CLR 28/22 A3010 RMK AO2 PWINO
KMBO 131535Z AUTO 05003KT 10SM CLR 28/23 A3010 RMK AO2 PWINO
KMBO 131515Z AUTO 00000KT 10SM CLR 27/22 A3010 RMK AO2 PWINO
KMBO 131455Z AUTO 29003KT 10SM CLR 27/23 A3009 RMK AO2 PWINO
KMBO 131435Z AUTO 31003KT 10SM CLR 26/23 A3010 RMK AO2 PWINO
KMBO 131415Z AUTO 35004KT 10SM CLR 25/23 A3010 RMK AO2 PWINO
KMBO 131355Z AUTO 33003KT 10SM CLR 25/24 A3010 RMK AO2 PWINO
KMBO 131335Z AUTO 00000KT 10SM CLR 24/24 A3010 RMK AO2 PWINO
KMBO 131315Z AUTO 05003KT 10SM CLR 23/23 A3010 RMK AO2 PWINO
KMBO 131255Z AUTO 00000KT 10SM CLR 22/22 A3009 RMK AO2 PWINO
KMBO 131235Z AUTO 00000KT 10SM CLR 22/22 A3009 RMK AO2 PWINO
KMBO 131215Z AUTO 00000KT 10SM CLR 22/22 A3009 RMK AO2 PWINO
KMBO 131155Z AUTO 00000KT 10SM SCT006 21/21 A3009 RMK AO2 PWINO
KMBO 131135Z AUTO 00000KT 10SM SCT006 21/21 A3008 RMK AO2 PWINO
KMBO 131115Z AUTO 00000KT 4SM CLR 21/21 A3008 RMK AO2 PWINO
KMBO 131055Z AUTO 00000KT 10SM CLR 21/21 A3008 RMK AO2 PWINO
KMBO 131035Z AUTO 00000KT 7SM CLR 21/21 A3007 RMK AO2 PWINO
KMBO 131015Z AUTO 00000KT 1 1/4SM VV007 21/21 A3007 RMK AO2 VIS 3/4V3 PWINO
KMBO 130955Z AUTO 00000KT 4SM CLR 21/21 A3007 RMK AO2 PWINO
KMBO 130935Z AUTO 00000KT 7SM CLR 21/21 A3007 RMK AO2 PWINO
KMBO 130915Z AUTO 00000KT 7SM CLR 21/21 A3008 RMK AO2 PWINO
KMBO 130855Z AUTO 00000KT 3SM CLR 21/21 A3008 RMK AO2 PWINO
KMBO 130835Z AUTO 00000KT 5SM CLR 21/21 A3007 RMK AO2 PWINO
KMBO 130815Z AUTO 00000KT 4SM CLR 21/21 A3007 RMK AO2 PWINO
KMBO 130755Z AUTO 00000KT 10SM CLR 22/22 A3007 RMK AO2 PWINO
KMBO 130735Z AUTO 00000KT 5SM CLR 21/21 A3007 RMK AO2 PWINO
KMBO 130715Z AUTO 00000KT 5SM CLR 21/21 A3007 RMK AO2 PWINO
KMBO 130655Z AUTO 00000KT 5SM CLR 21/21 A3007 RMK AO2 PWINO
KMBO 130635Z AUTO 00000KT 5SM CLR 21/21 A3007 RMK AO2 PWINO
KMBO 130615Z AUTO 00000KT 5SM CLR 21/21 A3007 RMK AO2 PWINO
KMBO 130555Z AUTO 00000KT 7SM CLR 21/21 A3008 RMK AO2 PWINO
KMBO 130535Z AUTO 00000KT 5SM CLR 22/22 A3008 RMK AO2 PWINO
KMBO 130515Z AUTO 00000KT 10SM CLR 22/22 A3008 RMK AO2 PWINO
KMBO 130455Z AUTO 00000KT 10SM CLR 22/22 A3009 RMK AO2 PWINO
KMBO 130435Z AUTO 00000KT 10SM CLR 22/22 A3009 RMK AO2 PWINO
KMBO 130415Z AUTO 24003KT 10SM CLR 23/23 A3009 RMK AO2 PWINO
KMBO 130355Z AUTO 00000KT 10SM CLR 22/22 A3009 RMK AO2 PWINO
KMBO 130335Z AUTO 00000KT 10SM CLR 22/22 A3010 RMK AO2 PWINO
KMBO 130315Z AUTO 00000KT 10SM CLR 22/22 A3008 RMK AO2 PWINO
KMBO 130255Z AUTO 00000KT 10SM CLR 22/22 A3009 RMK AO2 LTG DSNT W PWINO
KMBO 130235Z AUTO 22003KT 10SM CLR 22/22 A3009 RMK AO2 PWINO
KMBO 130215Z AUTO 00000KT 7SM CLR 22/22 A3009 RMK AO2 PWINO
KMBO 130155Z AUTO 00000KT 7SM CLR 22/22 A3008 RMK AO2 LTG DSNT W PWINO
KMBO 130135Z AUTO 00000KT 10SM CLR 23/23 A3008 RMK AO2 LTG DSNT W PWINO
KMBO 130115Z AUTO 00000KT 10SM CLR 22/22 A3008 RMK AO2 LTG DSNT SW AND W PWINO
KMBO 130055Z AUTO 00000KT 7SM CLR 22/22 A3008 RMK AO2 PWINO
KMBO 130035Z AUTO 00000KT 10SM SCT001 23/23 A3008 RMK AO2 LTG DSNT S AND SW PWINO
KMBO 130015Z AUTO 00000KT 10SM SCT001 22/22 A3008 RMK AO2 LTG DSNT NE S AND SW PWINO
KMBO 122355Z AUTO 00000KT 10SM SCT001 22/22 A3007 RMK AO2 LTG DSNT N AND NE PWINO
KMBO 122335Z AUTO 00000KT 10SM VCTS SCT001 22/22 A3005 RMK AO2 LTG DSNT SW THRU NE
KMBO 122315Z AUTO 00000KT 10SM CLR 22/22 A3005 RMK AO2 LTG DSNT ALQS PWINO
KMBO 122255Z AUTO 00000KT 10SM VCTS SCT070 23/23 A3005 RMK AO2 LTG DSNT ALQS
KMBO 122235Z AUTO 20007G16KT 10SM TS SCT070 23/22 A3006 RMK AO2 LTG DSNT E THRU SW
KMBO 122215Z AUTO 22009KT 10SM TS SCT010 SCT014 SCT070 23/23 A3007 RMK AO2 LTG DSNT ALQS
KMBO 122155Z AUTO 20009KT 10SM TS SCT004 BKN010 BKN029 22/22 A3006 RMK AO2 LTG DSNT S THRU NW
KMBO 122135Z AUTO 18008G20KT 4SM TS SCT002 SCT010 OVC048 22/22 A3007 RMK AO2 LTG DSNT ALQS
KMBO 122115Z AUTO 18014G26KT 10SM TS OVC046 24/21 A3004 RMK AO2 LTG DSNT ALQS
KMBO 122055Z AUTO 20012G20KT 10SM TS BKN046 27/22 A3003 RMK AO2 LTG DSNT ALQS
KMBO 122035Z AUTO 35003KT 10SM VCTS SCT046 31/22 A3002 RMK AO2 LTG DSNT ALQS
KMBO 122015Z AUTO 29003KT 10SM CLR 32/21 A3003 RMK AO2 LTG DSNT S PWINO
KMBO 121955Z AUTO 30004KT 10SM CLR 32/22 A3004 RMK AO2 LTG DSNT S PWINO
KMBO 121935Z AUTO 00000KT 10SM CLR 31/21 A3004 RMK AO2 LTG DSNT NE S AND SW PWINO
KMBO 121915Z AUTO 00000KT 10SM CLR 31/22 A3005 RMK AO2 LTG DSNT SW PWINO
KMBO 121855Z AUTO 00000KT 10SM CLR 30/22 A3007 RMK AO2 LTG DSNT S PWINO
KMBO 121835Z AUTO 00000KT 10SM CLR 30/22 A3007 RMK AO2 PWINO
KMBO 121815Z AUTO 28003KT 10SM CLR 30/22 A3008 RMK AO2 LTG DSNT W PWINO
KMBO 121755Z AUTO 26003KT 10SM CLR 30/22 A3009 RMK AO2 LTG DSNT SW PWINO
KMBO 121735Z AUTO 00000KT 10SM CLR 29/22 A3009 RMK AO2 PWINO
KMBO 121715Z AUTO 00000KT 10SM CLR 28/22 A3010 RMK AO2 LTG DSNT W PWINO
KMBO 121655Z AUTO 28004KT 10SM CLR 29/21 A3011 RMK AO2 PWINO
KMBO 121635Z AUTO 26005KT 10SM CLR 30/22 A3011 RMK AO2 PWINO
KMBO 121615Z AUTO 26006KT 10SM CLR 28/22 A3011 RMK AO2 PWINO
KMBO 121555Z AUTO 26005KT 10SM CLR 28/22 A3011 RMK AO2 PWINO
KMBO 121535Z AUTO 25006KT 10SM CLR 28/22 A3011 RMK AO2 PWINO
KMBO 121515Z AUTO 25003KT 10SM CLR 28/22 A3011 RMK AO2 PWINO
KMBO 121455Z AUTO 00000KT 10SM CLR 27/22 A3010 RMK AO2 PWINO
KMBO 121435Z AUTO 00000KT 10SM CLR 26/23 A3010 RMK AO2 PWINO
KMBO 121415Z AUTO 00000KT 10SM CLR 26/23 A3010 RMK AO2 PWINO
KMBO 121355Z AUTO 00000KT 10SM CLR 26/23 A3010 RMK AO2 PWINO
KMBO 121335Z AUTO 00000KT 10SM CLR 25/23 A3010 RMK AO2 PWINO
KMBO 121315Z AUTO 00000KT 10SM CLR 25/23 A3010 RMK AO2 PWINO
KMBO 121255Z AUTO 00000KT 10SM CLR 24/23 A3009 RMK AO2 LTG DSNT NW PWINO
KMBO 121235Z AUTO 00000KT 10SM CLR 23/23 A3008 RMK AO2 PWINO
KMBO 121215Z AUTO 00000KT 10SM CLR 23/23 A3008 RMK AO2 PWINO
KMBO 121155Z AUTO 00000KT 10SM CLR 22/22 A3007 RMK AO2 PWINO
KMBO 121135Z AUTO 00000KT 10SM CLR 22/22 A3007 RMK AO2 PWINO
KMBO 121115Z AUTO 00000KT 10SM CLR 22/22 A3006 RMK AO2 PWINO
KMBO 121055Z AUTO 00000KT 10SM CLR 23/23 A3006 RMK AO2 PWINO
KMBO 121035Z AUTO 00000KT 10SM CLR 23/23 A3005 RMK AO2 PWINO
KMBO 121015Z AUTO 00000KT 10SM CLR 23/23 A3005 RMK AO2 PWINO
KMBO 120955Z AUTO 00000KT 10SM CLR 23/23 A3004 RMK AO2 PWINO
KMBO 120935Z AUTO 00000KT 10SM CLR 23/23 A3003 RMK AO2 PWINO
KMBO 120915Z AUTO 00000KT 10SM CLR 23/23 A3003 RMK AO2 PWINO
KMBO 120855Z AUTO 00000KT 10SM CLR 23/23 A3003 RMK AO2 PWINO
KMBO 120835Z AUTO 00000KT 10SM CLR 23/23 A3003 RMK AO2 PWINO
KMBO 120815Z AUTO 00000KT 10SM CLR 23/23 A3003 RMK AO2 PWINO
KMBO 120755Z AUTO 00000KT 10SM CLR 23/23 A3003 RMK AO2 PWINO
KMBO 120735Z AUTO 00000KT 10SM CLR 23/23 A3004 RMK AO2 PWINO
KMBO 120715Z AUTO 00000KT 10SM CLR 23/23 A3005 RMK AO2 PWINO
KMBO 120655Z AUTO 26003KT 10SM CLR 24/23 A3005 RMK AO2 PWINO
KMBO 120635Z AUTO 24004KT 10SM CLR 24/23 A3005 RMK AO2 PWINO
KMBO 120615Z AUTO 25003KT 10SM CLR 24/23 A3005 RMK AO2 PWINO
KMBO 120555Z AUTO 26004KT 10SM CLR 25/23 A3006 RMK AO2 PWINO
KMBO 120535Z AUTO 26004KT 10SM CLR 25/24 A3006 RMK AO2 PWINO
KMBO 120515Z AUTO 25004KT 10SM CLR 25/25 A3005 RMK AO2 PWINO
KMBO 120455Z AUTO 00000KT 10SM CLR 25/25 A3005 RMK AO2 PWINO
KMBO 120435Z AUTO 23003KT 10SM CLR 25/25 A3004 RMK AO2 PWINO
KMBO 120415Z AUTO 25004KT 10SM CLR 25/25 A3004 RMK AO2 PWINO
KMBO 120355Z AUTO 25007KT 10SM CLR 26/24 A3003 RMK AO2 PWINO
KMBO 120335Z AUTO 22004KT 10SM CLR 24/23 A3002 RMK AO2 PWINO
KMBO 120315Z AUTO 00000KT 10SM CLR 24/24 A3001 RMK AO2 PWINO
KMBO 120255Z AUTO 00000KT 10SM CLR 24/23 A3000 RMK AO2 PWINO
KMBO 120235Z AUTO 00000KT 10SM CLR 24/23 A3000 RMK AO2 PWINO
KMBO 120215Z AUTO 00000KT 10SM CLR 25/23 A2999 RMK AO2 LTG DSNT SW PWINO
KMBO 120155Z AUTO 00000KT 10SM CLR 25/23 A2999 RMK AO2 PWINO
KMBO 120135Z AUTO 00000KT 10SM CLR 25/24 A2998 RMK AO2 PWINO
KMBO 120115Z AUTO 00000KT 10SM CLR 26/24 A2998 RMK AO2 PWINO
KMBO 120055Z AUTO 00000KT 10SM CLR 26/23 A2998 RMK AO2 PWINO
KMBO 120035Z AUTO 00000KT 10SM CLR 27/25 A2998 RMK AO2 PWINO
KMBO 120015Z AUTO 00000KT 10SM CLR 27/24 A2998 RMK AO2 PWINO
KMBO 112355Z AUTO 00000KT 10SM CLR 28/24 A2998 RMK AO2 PWINO
KMBO 112335Z AUTO 00000KT 10SM CLR 29/24 A2997 RMK AO2 PWINO
KMBO 112315Z AUTO 00000KT 10SM CLR 31/22 A2998 RMK AO2 PWINO
KMBO 112255Z AUTO 00000KT 10SM CLR 31/21 A2998 RMK AO2 PWINO
KMBO 112235Z AUTO 00000KT 10SM SCT060 32/20 A2998 RMK AO2 PWINO
KMBO 112215Z AUTO 00000KT 10SM SCT060 32/21 A2998 RMK AO2 PWINO
KMBO 112155Z AUTO 00000KT 10SM SCT060 32/20 A2998 RMK AO2 PWINO
KMBO 112135Z AUTO 25005KT 10SM CLR 32/20 A2998 RMK AO2 PWINO
KMBO 112115Z AUTO 26004KT 10SM CLR 32/20 A2998 RMK AO2 PWINO
KMBO 112055Z AUTO 27006KT 10SM CLR 32/20 A2999 RMK AO2 PWINO
KMBO 112035Z AUTO 26003KT 10SM CLR 32/20 A2999 RMK AO2 PWINO
KMBO 112015Z AUTO 02004KT 10SM SCT050 32/20 A3000 RMK AO2 PWINO
KMBO 111955Z AUTO 00000KT 10SM SCT050 32/21 A3000 RMK AO2 PWINO